createdAt,value
2023-02-14T00:03:46.289Z,3.66
2023-02-14T00:08:47.328Z,3.65
2023-02-14T00:13:54.758Z,3.63
2023-02-14T00:19:04.279Z,3.6
2023-02-14T00:23:44.560Z,3.55
2023-02-14T00:28:46.949Z,3.55
2023-02-14T00:33:44.645Z,3.5
2023-02-14T00:38:44.759Z,3.47
2023-02-14T00:43:44.645Z,3.43
2023-02-14T00:48:47.246Z,3.42
2023-02-14T00:53:47.449Z,3.4
2023-02-14T00:58:49.712Z,3.39
2023-02-14T01:03:44.654Z,3.35
2023-02-14T01:08:44.845Z,3.34
2023-02-14T01:13:46.199Z,3.32
2023-02-14T01:18:44.817Z,3.3
2023-02-14T01:23:47.256Z,3.25
2023-02-14T01:29:14.876Z,3.23
2023-02-14T01:33:47.282Z,3.22
2023-02-14T01:38:50.104Z,3.18
2023-02-14T01:44:00.224Z,3.16
2023-02-14T01:48:52.127Z,3.14
2023-02-14T01:53:47.160Z,3.16
2023-02-14T01:58:49.229Z,3.13
2023-02-14T02:03:46.948Z,3.11
2023-02-14T02:08:47.156Z,3.1
2023-02-14T02:13:44.714Z,3.08
2023-02-14T02:18:23.201Z,3.06
2023-02-14T02:23:31.530Z,3.03
2023-02-14T02:28:32.223Z,3.01
2023-02-14T02:33:25.961Z,3
2023-02-14T02:38:21.441Z,2.99
2023-02-14T02:43:21.225Z,2.98
2023-02-14T02:48:28.384Z,2.97
2023-02-14T02:53:19.049Z,2.96
2023-02-14T02:58:17.498Z,2.95
2023-02-14T03:03:31.660Z,2.93
2023-02-14T03:08:17.320Z,2.9
2023-02-14T03:13:25.586Z,2.88
2023-02-14T03:18:34.884Z,2.85
2023-02-14T03:23:26.954Z,2.8
2023-02-14T03:28:18.186Z,2.75
2023-02-14T03:33:20.593Z,2.74
2023-02-14T03:38:20.853Z,2.7
2023-02-14T03:43:16.411Z,2.7
2023-02-14T03:48:19.651Z,2.67
2023-02-14T03:53:19.173Z,2.66
2023-02-14T03:58:17.693Z,2.63
2023-02-14T04:03:19.289Z,2.65
2023-02-14T04:08:17.420Z,2.55
2023-02-14T04:13:16.201Z,2.52
2023-02-14T04:18:29.060Z,2.5
2023-02-14T04:23:14.970Z,2.49
2023-02-14T04:28:23.335Z,2.49
2023-02-14T04:33:20.903Z,2.49
2023-02-14T04:38:18.019Z,2.47
2023-02-14T04:43:14.870Z,2.44
2023-02-14T04:48:16.050Z,2.44
2023-02-14T04:53:14.814Z,2.42
2023-02-14T04:58:14.691Z,2.41
2023-02-14T05:03:16.101Z,2.42
2023-02-14T05:08:14.684Z,2.39
2023-02-14T05:13:14.739Z,2.41
2023-02-14T05:18:14.765Z,2.36
2023-02-14T05:23:14.583Z,2.35
2023-02-14T05:28:16.039Z,2.34
2023-02-14T05:33:14.732Z,2.3
2023-02-14T05:38:16.714Z,2.28
2023-02-14T05:43:19.180Z,2.23
2023-02-14T05:48:18.482Z,2.25
2023-02-14T05:53:14.673Z,2.24
2023-02-14T05:58:15.177Z,2.21
2023-02-14T06:03:14.763Z,2.2
2023-02-14T06:08:19.922Z,2.18
2023-02-14T06:13:14.579Z,2.17
2023-02-14T06:18:15.553Z,2.17
2023-02-14T06:23:14.726Z,2.17
2023-02-14T06:28:14.673Z,2.19
2023-02-14T06:33:14.776Z,2.17
2023-02-14T06:38:16.111Z,2.16
2023-02-14T06:43:14.723Z,2.15
2023-02-14T06:48:14.789Z,2.16
2023-02-14T06:53:14.637Z,2.15
2023-02-14T06:58:14.842Z,2.14
2023-02-14T07:03:19.104Z,2.14
2023-02-14T07:08:14.753Z,2.14
2023-02-14T07:13:14.638Z,2.13
2023-02-14T07:18:14.629Z,2.15
2023-02-14T07:23:15.176Z,2.16
2023-02-14T07:28:14.629Z,2.15
2023-02-14T07:33:14.611Z,2.16
2023-02-14T07:38:14.650Z,2.17
2023-02-14T07:43:14.730Z,2.19
2023-02-14T07:48:14.481Z,2.17
2023-02-14T07:53:14.901Z,2.2
2023-02-14T07:58:14.728Z,2.23
2023-02-14T08:03:14.659Z,2.28
2023-02-14T08:08:14.637Z,2.37
2023-02-14T08:13:14.579Z,2.54
2023-02-14T08:18:14.530Z,2.7
2023-02-14T08:23:14.844Z,2.84
2023-02-14T08:28:15.768Z,2.98
2023-02-14T08:33:14.749Z,3.12
2023-02-14T08:38:19.167Z,3.3
2023-02-14T08:43:18.080Z,3.43
2023-02-14T08:48:15.578Z,3.61
2023-02-14T08:53:20.254Z,3.81
2023-02-14T08:58:15.157Z,4.02
2023-02-14T09:03:14.548Z,4.3
2023-02-14T09:08:17.366Z,4.52
2023-02-14T09:13:16.363Z,4.73
2023-02-14T09:18:14.877Z,4.98
2023-02-14T09:23:23.314Z,5.26
2023-02-14T09:28:14.627Z,5.55
2023-02-14T09:33:14.553Z,5.87
2023-02-14T09:38:14.714Z,6.05
2023-02-14T09:43:22.722Z,6.38
2023-02-14T09:48:18.500Z,6.73
2023-02-14T09:53:21.018Z,7.07
2023-02-14T09:58:19.000Z,7.36
2023-02-14T10:03:22.445Z,7.56
2023-02-14T10:08:22.268Z,7.83
2023-02-14T10:13:19.934Z,8.2
2023-02-14T10:18:18.157Z,8.47
2023-02-14T10:23:21.973Z,8.71
2023-02-14T10:28:17.913Z,9.09
2023-02-14T10:33:22.460Z,9.15
2023-02-14T10:38:19.662Z,9.31
2023-02-14T10:43:19.794Z,9.3
2023-02-14T10:48:19.222Z,9.34
2023-02-14T10:53:22.596Z,9.55
2023-02-14T10:58:16.275Z,9.75
2023-02-14T11:03:16.819Z,9.85
2023-02-14T11:08:24.674Z,9.86
2023-02-14T11:13:28.626Z,10.07
2023-02-14T11:18:21.335Z,10.11
2023-02-14T11:23:27.496Z,10.21
2023-02-14T11:28:19.205Z,10.3
2023-02-14T11:33:16.187Z,10.45
2023-02-14T11:38:27.623Z,10.66
2023-02-14T11:43:28.576Z,10.7
2023-02-14T11:48:36.745Z,10.77
2023-02-14T11:53:15.424Z,10.96
2023-02-14T11:58:24.479Z,11.04
2023-02-14T12:03:22.247Z,11.12
2023-02-14T12:08:15.115Z,11.24
2023-02-14T12:13:27.358Z,11.2
2023-02-14T12:18:24.933Z,11.26
2023-02-14T12:25:09.232Z,11.31
2023-02-14T12:30:07.445Z,11.34
2023-02-14T12:35:05.983Z,11.42
2023-02-14T12:40:21.005Z,11.42
2023-02-14T12:45:08.671Z,11.46
2023-02-14T12:50:16.401Z,11.5
2023-02-14T12:55:11.851Z,11.48
2023-02-14T13:00:07.074Z,11.47
2023-02-14T13:05:05.567Z,11.56
2023-02-14T13:10:07.331Z,11.54
2023-02-14T13:15:08.582Z,11.59
2023-02-14T13:20:07.218Z,11.62
2023-02-14T13:25:06.938Z,11.69
2023-02-14T13:30:06.151Z,11.72
2023-02-14T13:35:06.316Z,11.74
2023-02-14T13:40:06.044Z,11.8
2023-02-14T13:45:03.885Z,11.83
2023-02-14T13:50:05.834Z,11.88
2023-02-14T13:55:11.363Z,11.93
2023-02-14T14:00:15.074Z,11.95
2023-02-14T14:05:03.856Z,11.98
2023-02-14T14:10:07.715Z,12
2023-02-14T14:15:16.805Z,12
2023-02-14T14:20:04.800Z,11.98
2023-02-14T14:25:11.117Z,11.94
2023-02-14T14:30:07.517Z,11.91
2023-02-14T14:35:04.832Z,11.91
2023-02-14T14:40:04.776Z,11.93
2023-02-14T14:45:05.523Z,11.93
2023-02-14T14:50:09.925Z,11.9
2023-02-14T14:55:05.740Z,11.89
2023-02-14T15:00:21.168Z,11.97
2023-02-14T15:05:13.846Z,11.97
2023-02-14T15:10:04.388Z,11.95
2023-02-14T15:15:04.077Z,11.9
2023-02-14T15:20:05.586Z,11.76
2023-02-14T15:25:04.181Z,11.6
2023-02-14T15:30:05.284Z,11.47
2023-02-14T15:35:05.446Z,11.33
2023-02-14T15:40:06.750Z,11.26
2023-02-14T15:45:15.477Z,11.19
2023-02-14T15:50:04.669Z,11.12
2023-02-14T15:55:03.778Z,11.02
2023-02-14T16:00:11.527Z,10.93
2023-02-14T16:05:11.058Z,10.82
2023-02-14T16:10:15.474Z,10.7
2023-02-14T16:15:14.403Z,10.56
2023-02-14T16:20:03.943Z,10.42
2023-02-14T16:25:04.816Z,10.28
2023-02-14T16:30:03.776Z,10.13
2023-02-14T16:35:04.058Z,9.97
2023-02-14T16:40:04.383Z,9.78
2023-02-14T16:45:03.994Z,9.61
2023-02-14T16:50:03.901Z,9.43
2023-02-14T16:55:04.635Z,9.28
2023-02-14T17:00:05.253Z,9.09
2023-02-14T17:05:03.987Z,8.9
2023-02-14T17:10:13.348Z,8.7
2023-02-14T17:15:07.375Z,8.5
2023-02-14T17:20:14.875Z,8.33
2023-02-14T17:25:04.933Z,8.15
2023-02-14T17:30:08.505Z,7.99
2023-02-14T17:35:05.823Z,7.82
2023-02-14T17:40:03.856Z,7.68
2023-02-14T17:45:05.912Z,7.54
2023-02-14T17:50:04.113Z,7.39
2023-02-14T17:55:03.983Z,7.25
2023-02-14T18:00:06.515Z,7.13
2023-02-14T18:05:07.384Z,6.99
2023-02-14T18:10:03.886Z,6.87
2023-02-14T18:15:06.615Z,6.76
2023-02-14T18:20:05.149Z,6.68
2023-02-14T18:25:03.838Z,6.6
2023-02-14T18:30:04.270Z,6.43
2023-02-14T18:35:04.208Z,6.29
2023-02-14T18:40:04.163Z,6.13
2023-02-14T18:45:03.867Z,6.02
2023-02-14T18:50:14.628Z,5.94
2023-02-14T18:55:04.323Z,5.84
2023-02-14T19:00:12.373Z,5.8
2023-02-14T19:05:04.078Z,5.64
2023-02-14T19:10:03.854Z,5.53
2023-02-14T19:15:05.770Z,5.41
2023-02-14T19:20:08.439Z,5.34
2023-02-14T19:25:03.785Z,5.27
2023-02-14T19:30:03.876Z,5.15
2023-02-14T19:35:03.840Z,5.13
2023-02-14T19:40:05.029Z,5.03
2023-02-14T19:45:03.714Z,4.92
2023-02-14T19:50:03.681Z,4.86
2023-02-14T19:55:03.823Z,4.8
2023-02-14T20:00:15.842Z,4.72
2023-02-14T20:05:04.088Z,4.65
2023-02-14T20:10:04.360Z,4.56
2023-02-14T20:15:05.173Z,4.49
2023-02-14T20:20:04.043Z,4.42
2023-02-14T20:25:03.803Z,4.33
2023-02-14T20:30:03.929Z,4.23
2023-02-14T20:35:08.689Z,4.21
2023-02-14T20:40:03.979Z,4.09
2023-02-14T20:45:03.719Z,4.03
2023-02-14T20:50:03.717Z,3.96
2023-02-14T20:55:04.438Z,3.85
2023-02-14T21:00:04.357Z,3.82
2023-02-14T21:05:03.940Z,3.74
2023-02-14T21:10:06.392Z,3.67
2023-02-14T21:15:04.026Z,3.58
2023-02-14T21:20:03.877Z,3.55
2023-02-14T21:25:04.075Z,3.44
2023-02-14T21:30:04.038Z,3.4
2023-02-14T21:35:05.326Z,3.31
2023-02-14T21:40:03.915Z,3.33
2023-02-14T21:45:26.938Z,3.28
2023-02-14T21:50:15.088Z,3.2
2023-02-14T21:55:05.807Z,3.17
2023-02-14T22:00:04.250Z,3.11
2023-02-14T22:05:07.401Z,3.03
2023-02-14T22:10:04.122Z,2.96
2023-02-14T22:15:04.029Z,2.96
2023-02-14T22:20:05.770Z,2.89
2023-02-14T22:25:05.963Z,2.82
2023-02-14T22:30:03.729Z,2.8
2023-02-14T22:35:03.920Z,2.78
2023-02-14T22:40:06.898Z,2.7
2023-02-14T22:45:07.404Z,2.64
2023-02-14T22:50:03.634Z,2.6
2023-02-14T22:55:05.916Z,2.54
2023-02-14T23:00:03.878Z,2.46
2023-02-14T23:05:11.171Z,2.41
2023-02-14T23:10:04.918Z,2.36
2023-02-14T23:15:15.205Z,2.3
2023-02-14T23:20:15.290Z,2.26
2023-02-14T23:25:07.854Z,2.21
2023-02-14T23:30:04.015Z,2.14
2023-02-14T23:35:04.231Z,2.08
2023-02-14T23:40:03.821Z,2.04
2023-02-14T23:45:25.539Z,1.98
2023-02-14T23:50:03.905Z,1.88
2023-02-14T23:55:04.025Z,1.85
